Time;durP1;ratioP1;P1;durP2;ratioP2;P2;SDS_P1;SDS_P2;PMS_P1;PMS_P2;Temp;Humidity;BMP_temperature;BMP_pressure;BME280_temperature;BME280_humidity;BME280_pressure;Samples;Min_cycle;Max_cycle;Signal;HPM_P1;HPM_P2
2022/02/11 00:06:17;;;;;;;;;;;;;;;;;;;;;
2022/02/11 00:16:40;;;;;;;1999.90;447.97;;;4.30;99.90;;;;;;4878060;29;20451;-80
2022/02/11 00:27:07;;;;;;;1999.90;613.37;;;4.30;99.90;;;;;;4882947;29;20492;-80
2022/02/11 00:32:32;;;;;;;1999.90;999.90;;;4.20;99.90;;;;;;4900957;29;20489;-80
2022/02/11 01:03:01;;;;;;;1998.57;715.77;;;4.00;99.90;;;;;;5094310;28;20447;-80
2022/02/11 01:05:33;;;;;;;1999.90;628.20;;;4.00;99.90;;;;;;5094480;28;20951;-80
2022/02/11 01:08:07;;;;;;;1999.90;555.70;;;4.00;99.90;;;;;;5092439;28;20457;-80
2022/02/11 01:10:37;;;;;;;1999.90;495.20;;;4.00;99.90;;;;;;5088568;28;20468;-79
2022/02/11 01:13:06;;;;;;;1999.90;516.67;;;3.90;99.90;;;;;;5087165;28;20445;-79
2022/02/11 01:15:37;;;;;;;1999.90;999.90;;;3.90;99.90;;;;;;5087163;28;20453;-79
2022/02/11 01:28:35;;;;;;;1785.37;131.87;;;3.90;99.90;;;;;;4890316;29;20547;-81
2022/02/11 01:31:14;;;;;;;1999.90;485.10;;;3.90;99.90;;;;;;4956893;28;20475;-80
2022/02/11 01:37:04;;;;;;;1999.90;529.30;;;3.90;99.90;;;;;;5016184;28;20459;-80
2022/02/11 01:40:09;;;;;;;1999.90;583.20;;;3.90;99.90;;;;;;5029632;28;20466;-80
2022/02/11 01:45:53;;;;;;;1999.90;999.90;;;3.90;99.90;;;;;;5011740;28;20486;-79
2022/02/11 01:54:05;;;;;;;1999.90;648.73;;;3.90;99.90;;;;;;5051135;28;20459;-80
2022/02/11 01:56:43;;;;;;;1999.90;552.67;;;3.90;99.90;;;;;;5086454;28;20518;-80
2022/02/11 02:05:26;;;;;;;1999.90;999.90;;;3.80;99.90;;;;;;5065820;28;20508;-80
2022/02/11 02:25:35;;;;;;;1999.90;399.57;;;3.80;99.90;;;;;;4997073;28;20516;-80
2022/02/11 02:33:57;;;;;;;1999.90;651.37;;;3.70;99.90;;;;;;5106841;28;20448;-80
2022/02/11 02:43:19;;;;;;;1999.90;690.10;;;3.70;99.90;;;;;;5086676;28;20473;-80
2022/02/11 02:56:38;;;;;;;1999.90;817.67;;;3.70;99.90;;;;;;5087518;28;20475;-80
2022/02/11 02:59:54;;;;;;;1999.90;395.37;;;3.60;99.90;;;;;;5067236;28;20476;-80
2022/02/11 03:16:57;;;;;;;1999.90;272.73;;;3.60;99.90;;;;;;5088679;28;20421;-80
2022/02/11 03:52:57;;;;;;;1999.90;732.80;;;3.40;99.90;;;;;;5076258;28;20472;-80
2022/02/11 03:56:02;;;;;;;1999.90;552.77;;;3.40;99.90;;;;;;5106183;28;20479;-80
2022/02/11 03:59:16;;;;;;;1999.90;585.77;;;3.40;99.90;;;;;;5104410;28;20449;-80
2022/02/11 05:00:16;;;;;;;1969.00;361.93;;;3.60;99.90;;;;;;5109763;28;20473;-80
2022/02/11 05:02:49;;;;;;;1999.90;999.90;;;3.60;99.90;;;;;;5103549;28;20539;-80
2022/02/11 05:05:18;;;;;;;1999.90;999.90;;;3.60;99.90;;;;;;5110703;28;20438;-80
2022/02/11 05:07:47;;;;;;;1999.90;421.87;;;3.60;99.90;;;;;;5111960;28;20446;-80
2022/02/11 05:10:19;;;;;;;1999.90;999.90;;;3.60;99.90;;;;;;5108381;28;20504;-80
2022/02/11 05:13:08;;;;;;;1252.17;264.20;;;3.60;99.90;;;;;;5102078;28;20473;-79
2022/02/11 05:15:37;;;;;;;1823.73;324.93;;;3.60;99.90;;;;;;5108882;28;20444;-80
2022/02/11 05:18:08;;;;;;;677.40;168.17;;;3.60;99.90;;;;;;5107933;28;20491;-79
2022/02/11 05:20:39;;;;;;;458.20;163.80;;;3.60;99.90;;;;;;5105659;28;20536;-80
2022/02/11 05:23:07;;;;;;;1604.17;286.70;;;3.60;99.90;;;;;;5090143;28;20437;-80
2022/02/11 05:26:32;;;;;;;;;;;;;;;;;;;;;
2022/02/11 05:29:06;;;;;;;1983.57;298.50;;;3.60;99.90;;;;;;5070007;28;20551;-81
2022/02/11 05:45:56;;;;;;;704.47;106.17;;;3.70;99.90;;;;;;4947064;28;20459;-80
2022/02/11 05:59:42;;;;;;;1999.90;999.90;;;3.80;99.90;;;;;;4967150;28;21334;-79
2022/02/11 06:02:59;;;;;;;1999.90;999.90;;;3.80;99.90;;;;;;5001490;28;21009;-79
2022/02/11 06:14:06;;;;;;;680.27;135.77;;;3.90;99.90;;;;;;4904133;29;20505;-79
2022/02/11 06:17:16;;;;;;;747.70;157.20;;;3.90;99.90;;;;;;4953124;29;20500;-79
2022/02/11 06:20:06;;;;;;;25.70;23.27;;;4.00;99.90;;;;;;4975073;28;20465;-79
2022/02/11 06:22:37;;;;;;;176.63;31.40;;;4.00;99.90;;;;;;4991472;28;20516;-79
2022/02/11 06:25:08;;;;;;;115.67;35.47;;;4.00;99.90;;;;;;4989765;28;20455;-79
2022/02/11 06:39:57;;;;;;;98.13;33.70;;;4.10;99.90;;;;;;5019744;28;20483;-79
2022/02/11 07:43:54;;;;;;;1999.90;413.43;;;4.70;99.90;;;;;;5821624;24;20820;-81
2022/02/11 07:46:25;;;;;;;158.20;24.17;;;4.70;99.90;;;;;;5951854;24;20427;-81
2022/02/11 07:48:57;;;;;;;113.13;12.40;;;4.70;99.90;;;;;;6005885;23;20447;-81
2022/02/11 07:51:28;;;;;;;131.80;29.47;;;4.70;99.90;;;;;;6094976;23;20512;-81
2022/02/11 07:53:58;;;;;;;56.30;10.40;;;4.80;99.90;;;;;;6094627;23;20803;-81
2022/02/11 07:56:27;;;;;;;87.77;14.73;;;4.80;99.90;;;;;;6094238;23;20802;-81
2022/02/11 07:58:57;;;;;;;84.57;14.50;;;4.90;99.90;;;;;;6094296;23;20413;-81
2022/02/11 08:01:27;;;;;;;84.27;12.83;;;5.00;99.90;;;;;;6095280;23;20445;-81
2022/02/11 08:04:00;;;;;;;102.77;12.20;;;4.90;99.90;;;;;;6129182;23;20456;-80
2022/02/11 08:06:29;;;;;;;85.30;12.53;;;5.00;99.90;;;;;;6129376;23;20385;-80
2022/02/11 08:08:57;;;;;;;111.23;13.33;;;5.00;99.90;;;;;;6093953;23;20448;-81
2022/02/11 08:11:32;;;;;;;121.83;13.60;;;5.00;99.90;;;;;;6093620;23;20428;-81
2022/02/11 08:14:02;;;;;;;152.53;15.33;;;5.10;99.90;;;;;;6090577;23;20429;-81
2022/02/11 08:19:19;;;;;;;20.97;19.27;;;5.10;99.90;;;;;;6081135;23;20446;-80
2022/02/11 08:21:48;;;;;;;48.40;9.47;;;5.10;99.90;;;;;;6085456;23;20543;-81
2022/02/11 08:24:19;;;;;;;112.90;11.83;;;5.20;99.90;;;;;;6085654;23;20430;-81
2022/02/11 08:26:47;;;;;;;207.63;19.93;;;5.20;99.90;;;;;;6085792;23;20428;-81
2022/02/11 08:29:21;;;;;;;152.80;15.80;;;5.20;99.90;;;;;;6084684;23;20449;-81
2022/02/11 08:31:49;;;;;;;94.70;12.43;;;5.30;99.90;;;;;;6084678;23;20421;-81
2022/02/11 08:34:17;;;;;;;75.37;13.33;;;5.30;99.90;;;;;;6111429;23;20942;-80
2022/02/11 08:36:47;;;;;;;158.47;20.80;;;5.30;99.90;;;;;;6109844;23;20410;-81
2022/02/11 08:39:16;;;;;;;199.23;24.10;;;5.40;99.90;;;;;;6112694;23;20436;-80
2022/02/11 08:41:46;;;;;;;152.07;19.43;;;5.40;99.90;;;;;;6084735;23;20802;-80
2022/02/11 08:44:24;;;;;;;227.90;15.73;;;5.40;99.90;;;;;;6083344;23;20434;-80
2022/02/11 08:47:02;;;;;;;310.63;34.17;;;5.40;99.90;;;;;;6118491;23;20831;-80
2022/02/11 08:49:31;;;;;;;142.17;10.23;;;5.40;99.90;;;;;;6083547;23;20774;-80
2022/02/11 08:52:01;;;;;;;116.10;14.90;;;5.50;99.90;;;;;;6106353;23;20401;-81
2022/02/11 08:54:29;;;;;;;149.87;16.13;;;5.50;99.90;;;;;;6081582;23;20413;-81
2022/02/11 08:57:03;;;;;;;116.93;11.60;;;5.60;99.90;;;;;;6081899;23;20418;-81
2022/02/11 08:59:33;;;;;;;235.23;22.80;;;5.60;99.90;;;;;;6081468;23;20434;-81
2022/02/11 09:02:07;;;;;;;260.37;25.03;;;5.60;99.90;;;;;;6107987;23;20440;-81
2022/02/11 09:04:40;;;;;;;162.43;15.53;;;5.70;99.90;;;;;;6108074;23;20802;-81
2022/02/11 09:07:33;;;;;;;115.70;16.60;;;5.70;99.90;;;;;;6049052;23;20421;-81
2022/02/11 09:10:07;;;;;;;201.80;33.60;;;5.70;99.90;;;;;;6082931;23;20438;-81
2022/02/11 09:12:36;;;;;;;277.23;29.23;;;5.70;99.90;;;;;;6081642;23;20421;-81
2022/02/11 09:15:06;;;;;;;214.97;18.40;;;5.80;99.90;;;;;;6082631;23;20761;-81
2022/02/11 09:17:34;;;;;;;164.73;19.10;;;5.80;99.90;;;;;;6116787;23;20418;-81
2022/02/11 09:20:05;;;;;;;235.03;18.70;;;5.80;99.90;;;;;;6081284;23;20434;-81
2022/02/11 09:22:33;;;;;;;166.33;22.30;;;5.80;99.90;;;;;;6080478;23;20438;-81
2022/02/11 09:25:04;;;;;;;189.77;20.10;;;5.80;99.90;;;;;;6081628;23;20438;-81
2022/02/11 09:42:02;;;;;;;1160.50;134.50;;;5.80;99.90;;;;;;5753052;24;20415;-81
2022/02/11 09:50:44;;;;;;;922.77;126.07;;;6.00;99.90;;;;;;5778804;24;20445;-80
2022/02/11 09:53:18;;;;;;;214.13;23.07;;;6.00;99.90;;;;;;5881836;24;20501;-80
2022/02/11 09:55:50;;;;;;;221.90;24.27;;;6.10;99.90;;;;;;5853121;24;20806;-80
2022/02/11 09:58:25;;;;;;;165.27;23.73;;;6.10;99.90;;;;;;5941007;24;20465;-80
2022/02/11 10:00:57;;;;;;;339.63;41.67;;;6.10;99.90;;;;;;6000588;23;20435;-80
2022/02/11 10:03:30;;;;;;;216.33;19.20;;;6.20;99.90;;;;;;6081704;23;20414;-80
2022/02/11 10:06:00;;;;;;;506.57;49.63;;;6.20;99.90;;;;;;6081710;23;20422;-80
2022/02/11 10:08:32;;;;;;;309.67;28.27;;;6.20;99.90;;;;;;6108223;23;20487;-80
2022/02/11 10:11:08;;;;;;;215.10;29.70;;;6.10;99.90;;;;;;6118359;23;20414;-80
2022/02/11 10:37:21;;;;;;;1043.67;151.27;;;5.90;99.90;;;;;;5823889;24;20494;-79
2022/02/11 10:39:58;;;;;;;775.20;132.77;;;5.90;99.90;;;;;;5864679;23;20445;-80
2022/02/11 10:42:43;;;;;;;962.70;137.63;;;5.90;99.90;;;;;;5995199;23;20424;-79
2022/02/11 10:45:31;;;;;;;1644.40;255.47;;;5.80;99.90;;;;;;6028179;23;20421;-79
2022/02/11 10:48:11;;;;;;;1973.03;387.40;;;5.80;99.90;;;;;;6079955;23;20450;-79
2022/02/11 10:50:49;;;;;;;777.33;133.37;;;5.80;99.90;;;;;;6079241;23;20449;-79
2022/02/11 10:53:28;;;;;;;676.90;117.37;;;5.80;99.90;;;;;;6080644;23;20414;-79
2022/02/11 10:55:59;;;;;;;1177.10;176.27;;;5.90;99.90;;;;;;6081048;23;20509;-79
2022/02/11 10:58:28;;;;;;;271.87;50.50;;;5.90;99.90;;;;;;6079931;23;20443;-79
2022/02/11 11:01:00;;;;;;;251.43;44.70;;;5.90;99.90;;;;;;6080959;23;20453;-79
2022/02/11 11:03:31;;;;;;;316.27;35.13;;;5.90;99.90;;;;;;6081167;23;20442;-79
2022/02/11 11:06:02;;;;;;;230.07;31.73;;;5.90;99.90;;;;;;6080404;23;20802;-79
2022/02/11 11:08:35;;;;;;;530.83;91.50;;;6.00;99.90;;;;;;6081352;23;20486;-79
2022/02/11 11:11:10;;;;;;;397.40;55.97;;;6.00;99.90;;;;;;6105826;23;20489;-79
2022/02/11 11:13:42;;;;;;;334.87;45.43;;;6.00;99.90;;;;;;6105231;23;20470;-79
2022/02/11 11:16:12;;;;;;;505.40;74.27;;;6.00;99.90;;;;;;6106541;23;20463;-79
2022/02/11 11:18:40;;;;;;;270.70;29.07;;;6.00;99.90;;;;;;6080924;23;20453;-79
2022/02/11 11:21:13;;;;;;;435.47;32.97;;;6.00;99.90;;;;;;6079515;23;20446;-79
2022/02/11 11:23:54;;;;;;;311.63;58.33;;;6.00;99.90;;;;;;6079225;23;20418;-79
2022/02/11 11:26:37;;;;;;;1298.23;112.07;;;6.00;99.90;;;;;;6079181;23;20426;-79
2022/02/11 11:29:10;;;;;;;1485.80;259.90;;;6.00;99.90;;;;;;6078965;23;20415;-79
2022/02/11 11:31:51;;;;;;;1521.00;238.97;;;5.90;99.90;;;;;;6079292;23;20414;-79
2022/02/11 11:34:28;;;;;;;1653.83;240.10;;;5.90;99.90;;;;;;6079589;23;20418;-79
2022/02/11 11:37:03;;;;;;;705.53;114.40;;;5.90;99.90;;;;;;6105498;23;20913;-79
2022/02/11 11:39:34;;;;;;;517.13;86.60;;;5.90;99.90;;;;;;6079328;23;20449;-79
2022/02/11 11:42:12;;;;;;;1191.57;220.30;;;5.90;99.90;;;;;;6079477;23;20434;-79
2022/02/11 11:44:52;;;;;;;956.40;188.27;;;5.80;99.90;;;;;;6080296;23;20441;-79
2022/02/11 11:47:29;;;;;;;1858.90;239.00;;;5.80;99.90;;;;;;6079537;23;20422;-79
2022/02/11 11:49:58;;;;;;;1868.53;294.60;;;5.80;99.90;;;;;;6080430;23;20496;-79
2022/02/11 11:52:40;;;;;;;1271.57;206.73;;;5.70;99.90;;;;;;6080280;23;20798;-79
2022/02/11 11:55:24;;;;;;;1552.60;262.67;;;5.70;99.90;;;;;;6107377;23;20454;-79
2022/02/11 11:57:53;;;;;;;1830.90;379.10;;;5.70;99.90;;;;;;6106837;23;20394;-79
2022/02/11 12:00:36;;;;;;;1999.90;429.80;;;5.60;99.90;;;;;;6081281;23;20442;-79
2022/02/11 12:03:10;;;;;;;1634.37;273.37;;;5.60;99.90;;;;;;6081038;23;20411;-79
2022/02/11 12:05:53;;;;;;;1884.37;335.77;;;5.60;99.90;;;;;;6080463;23;20770;-79
2022/02/11 12:08:27;;;;;;;1947.43;369.50;;;5.50;99.90;;;;;;6080273;23;20421;-79
2022/02/11 12:11:09;;;;;;;;;;;;;;;;;;;;;
2022/02/11 12:13:40;;;;;;;1999.90;280.17;;;5.50;99.90;;;;;;6106548;23;20472;-79
2022/02/11 12:16:09;;;;;;;1956.57;376.73;;;5.60;99.90;;;;;;6080548;23;20419;-79
2022/02/11 12:18:38;;;;;;;1999.90;413.03;;;5.50;99.90;;;;;;6079888;23;20454;-79
2022/02/11 12:21:07;;;;;;;1999.90;999.90;;;5.50;99.90;;;;;;6080365;23;20449;-79
2022/02/11 12:29:11;;;;;;;1999.90;999.90;;;5.50;99.90;;;;;;6104640;23;20402;-79
2022/02/11 12:31:40;;;;;;;1910.27;531.03;;;5.50;99.90;;;;;;6080434;23;20461;-78
2022/02/11 12:34:13;;;;;;;1999.90;586.90;;;5.50;99.90;;;;;;6079348;23;20445;-79
2022/02/11 12:36:41;;;;;;;1999.90;999.90;;;5.50;99.90;;;;;;6079646;23;20437;-79
2022/02/11 12:39:16;;;;;;;1885.03;444.43;;;5.50;99.90;;;;;;6079142;23;20960;-79
2022/02/11 12:41:50;;;;;;;1999.90;999.90;;;5.50;99.90;;;;;;6079529;23;20736;-79
2022/02/11 12:44:26;;;;;;;1736.87;495.67;;;5.50;99.90;;;;;;6079381;23;20402;-79
2022/02/11 12:46:59;;;;;;;1990.30;543.73;;;5.50;99.90;;;;;;6078996;23;20406;-79
2022/02/11 12:49:28;;;;;;;1999.90;534.20;;;5.50;99.90;;;;;;6105093;23;20810;-79
2022/02/11 12:51:58;;;;;;;1893.23;750.03;;;5.50;99.90;;;;;;6114205;23;20905;-79
2022/02/11 12:54:29;;;;;;;1950.67;296.93;;;5.60;99.90;;;;;;6078465;23;20418;-79
2022/02/11 12:57:06;;;;;;;1999.90;999.90;;;5.60;99.90;;;;;;6080171;23;20418;-79
2022/02/11 12:59:48;;;;;;;1905.43;559.77;;;5.60;99.90;;;;;;6078676;23;20446;-78
2022/02/11 13:02:27;;;;;;;1913.83;547.73;;;5.60;99.90;;;;;;6104612;23;20445;-79
2022/02/11 13:05:09;;;;;;;1999.90;999.90;;;5.70;99.90;;;;;;6078728;23;20418;-79
2022/02/11 13:07:45;;;;;;;1999.90;999.90;;;5.70;99.90;;;;;;6078562;23;20870;-79
2022/02/11 13:15:34;;;;;;;1999.90;999.90;;;5.80;99.90;;;;;;5832897;24;20422;-79
2022/02/11 13:18:10;;;;;;;1999.90;999.90;;;5.80;99.90;;;;;;5935951;24;20455;-79
2022/02/11 13:20:46;;;;;;;1999.90;999.90;;;5.80;99.90;;;;;;5936986;24;20967;-79
2022/02/11 13:23:20;;;;;;;1999.90;999.90;;;5.80;99.90;;;;;;5937154;24;20888;-79
2022/02/11 13:25:51;;;;;;;1631.73;198.87;;;5.80;99.90;;;;;;5936755;24;20808;-79
2022/02/11 13:28:22;;;;;;;1832.93;525.87;;;5.80;99.90;;;;;;5937285;24;20554;-79
2022/02/11 13:30:59;;;;;;;1626.70;544.63;;;5.80;99.90;;;;;;5936795;24;20533;-79
2022/02/11 13:33:29;;;;;;;1850.63;504.73;;;5.80;99.90;;;;;;5969762;24;20414;-79
2022/02/11 13:35:59;;;;;;;1468.03;258.80;;;5.80;99.90;;;;;;5937055;24;20426;-79
2022/02/11 13:38:29;;;;;;;1516.00;495.50;;;5.90;99.90;;;;;;5937273;24;20418;-79
2022/02/11 13:40:59;;;;;;;1635.53;337.17;;;5.90;99.90;;;;;;5937625;24;20450;-78
2022/02/11 13:43:45;;;;;;;1614.50;316.13;;;5.90;99.90;;;;;;5982170;23;20495;-79
2022/02/11 13:46:26;;;;;;;1999.90;999.90;;;5.90;99.90;;;;;;6105021;23;20485;-79
2022/02/11 13:48:56;;;;;;;1999.90;999.90;;;6.00;99.90;;;;;;6079236;23;20414;-79
2022/02/11 13:51:26;;;;;;;1361.67;449.43;;;6.00;99.90;;;;;;6114653;23;20446;-79
2022/02/11 13:53:55;;;;;;;1098.97;398.03;;;6.10;99.90;;;;;;6079088;23;20422;-79
2022/02/11 13:56:37;;;;;;;919.60;372.30;;;6.10;99.90;;;;;;6104789;23;20414;-80
2022/02/11 13:59:07;;;;;;;1276.70;437.00;;;6.20;99.90;;;;;;6079656;23;20489;-79
2022/02/11 14:01:39;;;;;;;274.27;49.47;;;6.20;99.90;;;;;;6102232;23;20423;-79
2022/02/11 14:04:11;;;;;;;1313.73;468.93;;;6.20;99.90;;;;;;6080243;23;20428;-79
2022/02/11 14:23:16;;;;;;;1746.47;715.17;;;6.10;99.90;;;;;;5713537;24;20413;-80
2022/02/11 14:25:48;;;;;;;1999.90;424.47;;;6.00;99.90;;;;;;5980561;23;20477;-79
2022/02/11 14:28:19;;;;;;;1656.63;697.93;;;6.00;99.90;;;;;;5993998;23;20938;-79
2022/02/11 14:31:08;;;;;;;1778.30;723.30;;;6.00;99.90;;;;;;5993296;23;20445;-79
2022/02/11 14:33:57;;;;;;;1999.90;324.53;;;6.00;99.90;;;;;;6035696;23;20508;-79
2022/02/11 14:43:48;;;;;;;1887.10;306.27;;;5.90;99.90;;;;;;5974196;23;20521;-79
2022/02/11 14:46:18;;;;;;;1999.90;558.83;;;5.90;99.90;;;;;;6115279;23;20940;-79
2022/02/11 14:48:49;;;;;;;1999.90;478.57;;;5.90;99.90;;;;;;6080062;23;20418;-80
2022/02/11 14:51:22;;;;;;;1999.90;516.13;;;5.80;99.90;;;;;;6105099;23;20430;-77
2022/02/11 14:53:53;;;;;;;1999.90;514.13;;;5.80;99.90;;;;;;6075418;23;20430;-81
2022/02/11 14:56:22;;;;;;;1999.90;371.33;;;5.80;99.90;;;;;;6076489;23;20489;-81
2022/02/11 14:58:53;;;;;;;1737.50;284.80;;;5.70;99.90;;;;;;6112086;23;20835;-81
2022/02/11 15:01:21;;;;;;;1475.10;178.67;;;5.70;99.90;;;;;;6075658;23;20469;-81
2022/02/11 15:06:50;;;;;;;1999.90;393.03;;;5.70;99.90;;;;;;6076560;23;20457;-81
2022/02/11 15:09:20;;;;;;;1999.90;363.03;;;5.60;99.90;;;;;;6111689;23;20422;-81
2022/02/11 15:11:58;;;;;;;1999.90;475.17;;;5.60;99.90;;;;;;6076767;23;20446;-81
2022/02/11 16:27:43;;;;;;;1999.90;422.70;;;5.10;99.90;;;;;;5696753;25;20455;-80
2022/02/11 16:31:54;;;;;;;;;;;;;;;;;;;;;
2022/02/11 16:36:20;;;;;;;1212.30;201.50;;;5.10;99.90;;;;;;5740298;25;20961;-80
2022/02/11 16:39:04;;;;;;;1999.90;292.10;;;5.00;99.90;;;;;;5850128;24;20430;-80
2022/02/11 16:45:04;;;;;;;1999.90;721.10;;;4.90;99.90;;;;;;5827319;24;20423;-80
2022/02/11 16:47:36;;;;;;;1999.90;999.90;;;4.90;99.90;;;;;;5888659;24;20463;-80
2022/02/11 16:50:06;;;;;;;1999.90;999.90;;;4.90;99.90;;;;;;6047459;23;20775;-80
2022/02/11 16:52:35;;;;;;;1999.90;999.90;;;4.80;99.90;;;;;;6052972;23;20423;-80
2022/02/11 16:55:05;;;;;;;1999.90;999.90;;;4.80;99.90;;;;;;6053203;23;20426;-80
2022/02/11 16:57:34;;;;;;;12.32;7.00;;;4.80;99.90;;;;;;6046140;23;20476;-78
2022/02/11 17:00:06;;;;;;;411.47;89.93;;;4.80;99.90;;;;;;6051417;23;20218;-79
2022/02/11 17:02:36;;;;;;;1999.90;999.90;;;4.80;99.90;;;;;;6087785;23;20844;-79
2022/02/11 17:05:04;;;;;;;1999.90;999.90;;;4.80;99.90;;;;;;6052101;23;20830;-79
2022/02/11 17:07:33;;;;;;;1999.90;999.90;;;4.70;99.90;;;;;;6077872;23;20518;-79
2022/02/11 17:10:05;;;;;;;1999.90;338.73;;;4.70;99.90;;;;;;6087474;23;20419;-78
2022/02/11 17:12:35;;;;;;;1999.90;999.90;;;4.60;99.90;;;;;;6087169;23;20455;-79
2022/02/11 17:15:08;;;;;;;1999.90;999.90;;;4.60;99.90;;;;;;6085370;23;20485;-79
2022/02/11 17:17:39;;;;;;;1999.90;999.90;;;4.60;99.90;;;;;;6063834;23;20452;-79
2022/02/11 17:20:12;;;;;;;1999.90;999.90;;;4.50;99.90;;;;;;6080310;23;20460;-79
2022/02/11 17:22:45;;;;;;;1999.90;452.17;;;4.50;99.90;;;;;;6081014;23;20750;-79
2022/02/11 17:25:14;;;;;;;1999.90;999.90;;;4.50;99.90;;;;;;6106877;23;20780;-79
2022/02/11 17:27:44;;;;;;;1999.90;999.90;;;4.50;99.90;;;;;;6081042;23;20434;-79
2022/02/11 17:30:18;;;;;;;1999.90;999.90;;;4.50;99.90;;;;;;6105785;23;20437;-79
2022/02/11 17:32:51;;;;;;;1999.90;999.90;;;4.40;99.90;;;;;;6081483;23;20453;-80
2022/02/11 17:35:19;;;;;;;604.08;137.93;;;4.40;99.90;;;;;;6077969;23;20448;-80
2022/02/11 17:37:49;;;;;;;700.77;160.17;;;4.40;99.90;;;;;;6080775;23;20179;-80
2022/02/11 17:40:18;;;;;;;1999.90;999.90;;;4.40;99.90;;;;;;6079106;23;20442;-78
2022/02/11 17:42:50;;;;;;;1999.90;999.90;;;4.40;99.90;;;;;;6078875;23;20429;-79
2022/02/11 17:45:20;;;;;;;1999.90;999.90;;;4.40;99.90;;;;;;6079426;23;20441;-80
2022/02/11 17:47:49;;;;;;;1999.90;341.23;;;4.30;99.90;;;;;;6078565;23;20433;-79
2022/02/11 17:50:17;;;;;;;1999.90;559.63;;;4.30;99.90;;;;;;6078217;23;20485;-79
2022/02/11 17:52:45;;;;;;;1999.90;999.90;;;4.20;99.90;;;;;;6104004;23;20424;-79
2022/02/11 17:55:14;;;;;;;1999.90;999.90;;;4.20;99.90;;;;;;6078076;23;20426;-80
2022/02/11 17:57:43;;;;;;;1999.90;999.90;;;4.20;99.90;;;;;;6078221;23;20908;-79
2022/02/11 18:00:12;;;;;;;1999.90;999.90;;;4.10;99.90;;;;;;6078393;23;20441;-80
2022/02/11 18:02:41;;;;;;;1999.90;999.90;;;4.10;99.90;;;;;;6103663;23;20479;-79
2022/02/11 18:05:12;;;;;;;1999.90;999.90;;;4.00;99.90;;;;;;6078096;23;20488;-79
2022/02/11 18:07:40;;;;;;;1999.90;751.10;;;4.00;99.90;;;;;;6113175;23;20817;-79
2022/02/11 18:10:10;;;;;;;1999.90;999.90;;;3.90;99.90;;;;;;6078271;23;20829;-79
2022/02/11 18:12:39;;;;;;;1469.47;166.23;;;4.00;99.90;;;;;;6078571;23;20452;-80
2022/02/11 18:15:08;;;;;;;1761.73;710.27;;;3.80;99.90;;;;;;6077851;23;20441;-79
2022/02/11 18:17:37;;;;;;;1999.90;999.90;;;3.80;99.90;;;;;;6078082;23;20809;-79
2022/02/11 18:20:09;;;;;;;1999.90;758.73;;;3.80;99.90;;;;;;6076826;23;20475;-78
2022/02/11 18:22:38;;;;;;;1999.90;361.70;;;3.80;99.90;;;;;;6103785;23;20731;-79
2022/02/11 18:25:07;;;;;;;1999.90;715.83;;;3.70;99.90;;;;;;6079700;23;20532;-79
2022/02/11 18:27:36;;;;;;;1999.90;365.67;;;3.70;99.90;;;;;;6107243;23;20433;-80
2022/02/11 18:30:06;;;;;;;1279.50;88.33;;;3.60;99.90;;;;;;6080514;23;20435;-80
2022/02/11 18:32:36;;;;;;;1999.90;445.80;;;3.60;99.90;;;;;;6081460;23;20421;-80
2022/02/11 18:35:06;;;;;;;1999.90;410.17;;;3.60;99.90;;;;;;6081234;23;20414;-79
2022/02/11 18:37:35;;;;;;;1999.90;441.83;;;3.60;99.90;;;;;;6081000;23;20410;-80
2022/02/11 18:40:04;;;;;;;1999.90;501.07;;;3.50;99.90;;;;;;6080889;23;20469;-80
2022/02/11 18:42:35;;;;;;;1999.90;999.90;;;3.50;99.90;;;;;;6107113;23;20404;-79
2022/02/11 18:45:05;;;;;;;1999.90;725.93;;;3.40;99.90;;;;;;6081901;23;20427;-79
2022/02/11 18:47:34;;;;;;;1999.90;442.83;;;3.50;99.90;;;;;;6083212;23;20449;-80
2022/02/11 18:50:03;;;;;;;1999.90;485.37;;;3.40;99.90;;;;;;6080643;23;20443;-80
2022/02/11 18:52:33;;;;;;;1999.90;342.97;;;3.40;99.90;;;;;;6081618;23;20436;-80
2022/02/11 18:55:01;;;;;;;1999.90;471.33;;;3.40;99.90;;;;;;6082086;23;20507;-79
2022/02/11 18:57:30;;;;;;;1999.90;224.80;;;3.40;99.90;;;;;;6081753;23;20422;-80
2022/02/11 19:02:45;;;;;;;1999.90;503.47;;;3.30;99.90;;;;;;6083617;23;20414;-79
2022/02/11 19:05:14;;;;;;;1999.90;413.07;;;3.30;99.90;;;;;;6082998;23;20513;-80
2022/02/11 19:07:43;;;;;;;1999.90;450.10;;;3.30;99.90;;;;;;6083157;23;20445;-80
2022/02/11 19:10:13;;;;;;;1999.90;502.10;;;3.20;99.90;;;;;;6083709;23;20452;-78
2022/02/11 19:12:41;;;;;;;1999.90;535.53;;;3.20;99.90;;;;;;6084061;23;20430;-80
2022/02/11 19:15:12;;;;;;;1999.90;466.37;;;3.10;99.90;;;;;;6084902;23;20409;-80
2022/02/11 19:17:41;;;;;;;1796.20;169.57;;;3.10;99.90;;;;;;6084300;23;20451;-80
2022/02/11 19:20:11;;;;;;;1999.90;590.47;;;3.10;99.90;;;;;;6110242;23;20430;-80
2022/02/11 19:22:41;;;;;;;1999.90;636.70;;;3.00;99.90;;;;;;6084184;23;20452;-80
2022/02/11 19:25:18;;;;;;;1963.03;230.00;;;3.00;99.90;;;;;;6085088;23;20752;-80
2022/02/11 19:27:48;;;;;;;1999.90;355.57;;;3.00;99.90;;;;;;6117268;23;20418;-80
2022/02/11 19:30:17;;;;;;;1999.90;405.17;;;2.90;99.90;;;;;;6117797;23;20921;-80
2022/02/11 19:32:47;;;;;;;1999.90;392.43;;;2.90;99.90;;;;;;6084853;23;20418;-80
2022/02/11 19:35:18;;;;;;;1999.90;570.10;;;2.90;99.90;;;;;;6084758;23;20423;-80
2022/02/11 19:37:50;;;;;;;1883.33;289.17;;;2.80;99.90;;;;;;6119096;23;20428;-80
2022/02/11 19:40:20;;;;;;;1999.90;233.10;;;2.80;99.90;;;;;;6082117;23;20442;-78
2022/02/11 19:42:49;;;;;;;1767.00;265.63;;;2.80;99.90;;;;;;6084461;23;20418;-79
2022/02/11 19:45:17;;;;;;;1999.90;399.83;;;2.80;99.90;;;;;;6085633;23;20420;-79
2022/02/11 19:47:47;;;;;;;1999.90;320.90;;;2.70;99.90;;;;;;6086085;23;20894;-80
2022/02/11 19:50:15;;;;;;;1999.90;439.53;;;2.70;99.90;;;;;;6083788;23;20445;-80
2022/02/11 19:52:45;;;;;;;1999.90;340.40;;;2.70;99.90;;;;;;6083048;23;20425;-81
2022/02/11 19:55:14;;;;;;;1999.90;213.93;;;2.70;99.90;;;;;;6109113;23;20735;-80
2022/02/11 19:57:44;;;;;;;1999.90;404.13;;;2.70;99.90;;;;;;6084957;23;20478;-81
2022/02/11 20:00:15;;;;;;;1999.90;299.07;;;2.70;99.90;;;;;;6086214;23;20442;-80
2022/02/11 20:02:45;;;;;;;1829.83;270.07;;;2.70;99.90;;;;;;6086789;23;20452;-80
2022/02/11 20:05:15;;;;;;;1999.90;411.50;;;2.70;99.90;;;;;;6085455;23;20491;-81
2022/02/11 20:07:43;;;;;;;1999.90;427.20;;;2.70;99.90;;;;;;6111541;23;20467;-80
2022/02/11 20:10:16;;;;;;;1824.67;302.70;;;2.70;99.90;;;;;;6086044;23;20488;-80
2022/02/11 20:12:46;;;;;;;1999.90;264.70;;;2.70;99.90;;;;;;6087291;23;20423;-80
2022/02/11 20:15:15;;;;;;;1960.77;313.17;;;2.70;99.90;;;;;;6087923;23;20414;-80
2022/02/11 20:17:45;;;;;;;1999.90;351.63;;;2.70;99.90;;;;;;6113786;23;20417;-80
2022/02/11 20:20:14;;;;;;;1999.90;569.03;;;2.70;99.90;;;;;;6123039;23;20434;-80
2022/02/11 20:22:45;;;;;;;1999.90;457.23;;;2.70;99.90;;;;;;6086935;23;20427;-80
2022/02/11 20:25:16;;;;;;;1990.27;210.87;;;2.60;99.90;;;;;;6087246;23;20426;-80
2022/02/11 20:27:45;;;;;;;1943.47;230.67;;;2.70;99.90;;;;;;6087928;23;20412;-80
2022/02/11 20:30:14;;;;;;;1999.90;519.77;;;2.70;99.90;;;;;;6087646;23;20473;-80
2022/02/11 20:32:42;;;;;;;1996.33;319.67;;;2.60;99.90;;;;;;6088555;23;20460;-80
2022/02/11 20:35:11;;;;;;;1721.63;236.60;;;2.60;99.90;;;;;;6087178;23;20430;-80
2022/02/11 20:37:40;;;;;;;1999.90;438.10;;;2.60;99.90;;;;;;6085077;23;20409;-80
2022/02/11 20:40:09;;;;;;;1999.90;380.87;;;2.60;99.90;;;;;;6086364;23;20474;-81
2022/02/11 20:42:37;;;;;;;1999.90;359.90;;;2.60;99.90;;;;;;6085605;23;20792;-79
2022/02/11 20:45:08;;;;;;;1736.57;249.70;;;2.50;99.90;;;;;;6089207;23;20521;-80
2022/02/11 20:47:36;;;;;;;1999.90;356.63;;;2.50;99.90;;;;;;6125334;23;20408;-80
2022/02/11 20:52:51;;;;;;;1977.93;280.33;;;2.50;99.90;;;;;;6088338;23;20444;-80
2022/02/11 20:55:20;;;;;;;929.63;145.40;;;2.50;99.90;;;;;;6089363;23;20927;-81
2022/02/11 20:57:48;;;;;;;1999.90;352.93;;;2.50;99.90;;;;;;6088608;23;20449;-81
2022/02/11 21:00:18;;;;;;;1999.90;226.67;;;2.50;99.90;;;;;;6088419;23;20442;-81
2022/02/11 21:02:46;;;;;;;1999.90;832.90;;;2.50;99.90;;;;;;6088405;23;20491;-80
2022/02/11 21:05:15;;;;;;;1712.53;267.33;;;2.40;99.90;;;;;;6090036;23;20422;-81
2022/02/11 21:07:44;;;;;;;1708.00;282.53;;;2.40;99.90;;;;;;6114495;23;20443;-81
2022/02/11 21:10:15;;;;;;;1709.40;269.37;;;2.40;99.90;;;;;;6092510;23;20460;-79
2022/02/11 21:12:44;;;;;;;1972.93;323.17;;;2.40;99.90;;;;;;6087073;23;20427;-80